sensor_id;sensor_type;location;lat;lon;timestamp;temperature;humidity
52799;DHT22;38667;42.872;74.622;2022-09-01T00:00:46;19.50;45.00
52799;DHT22;38667;42.872;74.622;2022-09-01T00:03:12;19.50;44.90
52799;DHT22;38667;42.872;74.622;2022-09-01T00:05:39;19.50;44.80
52799;DHT22;38667;42.872;74.622;2022-09-01T00:08:05;19.60;44.80
52799;DHT22;38667;42.872;74.622;2022-09-01T00:10:31;19.60;43.80
52799;DHT22;38667;42.872;74.622;2022-09-01T00:12:58;19.70;44.60
52799;DHT22;38667;42.872;74.622;2022-09-01T00:15:25;19.70;44.40
52799;DHT22;38667;42.872;74.622;2022-09-01T00:17:53;19.70;44.30
52799;DHT22;38667;42.872;74.622;2022-09-01T00:20:19;19.70;43.30
52799;DHT22;38667;42.872;74.622;2022-09-01T00:22:45;19.70;45.40
52799;DHT22;38667;42.872;74.622;2022-09-01T00:25:12;19.70;45.30
52799;DHT22;38667;42.872;74.622;2022-09-01T00:27:38;19.70;43.00
52799;DHT22;38667;42.872;74.622;2022-09-01T00:30:05;19.70;43.80
52799;DHT22;38667;42.872;74.622;2022-09-01T00:32:31;19.70;44.50
52799;DHT22;38667;42.872;74.622;2022-09-01T00:34:59;19.70;44.30
52799;DHT22;38667;42.872;74.622;2022-09-01T00:37:26;19.70;43.30
52799;DHT22;38667;42.872;74.622;2022-09-01T00:39:52;19.90;40.50
52799;DHT22;38667;42.872;74.622;2022-09-01T00:42:18;20.10;37.10
52799;DHT22;38667;42.872;74.622;2022-09-01T00:44:45;20.40;37.40
52799;DHT22;38667;42.872;74.622;2022-09-01T00:47:11;20.50;36.70
52799;DHT22;38667;42.872;74.622;2022-09-01T00:49:40;20.60;36.20
52799;DHT22;38667;42.872;74.622;2022-09-01T00:52:13;20.70;36.10
52799;DHT22;38667;42.872;74.622;2022-09-01T00:54:44;20.80;36.40
52799;DHT22;38667;42.872;74.622;2022-09-01T00:57:11;20.80;36.40
52799;DHT22;38667;42.872;74.622;2022-09-01T00:59:41;20.90;36.50
52799;DHT22;38667;42.872;74.622;2022-09-01T01:02:08;20.90;36.20
52799;DHT22;38667;42.872;74.622;2022-09-01T01:04:35;21.00;35.80
52799;DHT22;38667;42.872;74.622;2022-09-01T01:07:01;21.00;36.10
52799;DHT22;38667;42.872;74.622;2022-09-01T01:09:31;21.00;37.30
52799;DHT22;38667;42.872;74.622;2022-09-01T01:11:59;20.90;39.00
52799;DHT22;38667;42.872;74.622;2022-09-01T01:14:26;20.80;41.70
52799;DHT22;38667;42.872;74.622;2022-09-01T01:16:52;20.80;39.90
52799;DHT22;38667;42.872;74.622;2022-09-01T01:19:24;20.70;39.80
52799;DHT22;38667;42.872;74.622;2022-09-01T01:21:55;20.80;37.20
52799;DHT22;38667;42.872;74.622;2022-09-01T01:24:24;20.90;37.10
52799;DHT22;38667;42.872;74.622;2022-09-01T01:26:51;21.00;37.40
52799;DHT22;38667;42.872;74.622;2022-09-01T01:29:18;21.00;39.10
52799;DHT22;38667;42.872;74.622;2022-09-01T01:31:45;20.90;40.70
52799;DHT22;38667;42.872;74.622;2022-09-01T01:34:12;20.80;41.60
52799;DHT22;38667;42.872;74.622;2022-09-01T01:36:38;20.70;43.20
52799;DHT22;38667;42.872;74.622;2022-09-01T01:39:07;20.70;41.80
52799;DHT22;38667;42.872;74.622;2022-09-01T01:41:36;20.70;37.90
52799;DHT22;38667;42.872;74.622;2022-09-01T01:44:04;20.90;38.80
52799;DHT22;38667;42.872;74.622;2022-09-01T01:46:31;20.90;39.60
52799;DHT22;38667;42.872;74.622;2022-09-01T01:48:58;21.00;38.40
52799;DHT22;38667;42.872;74.622;2022-09-01T01:51:24;21.00;37.90
52799;DHT22;38667;42.872;74.622;2022-09-01T01:53:51;21.00;38.20
52799;DHT22;38667;42.872;74.622;2022-09-01T01:56:17;21.10;39.70
52799;DHT22;38667;42.872;74.622;2022-09-01T01:58:45;21.10;39.50
52799;DHT22;38667;42.872;74.622;2022-09-01T02:01:11;21.10;40.20
52799;DHT22;38667;42.872;74.622;2022-09-01T02:03:38;21.10;38.90
52799;DHT22;38667;42.872;74.622;2022-09-01T02:06:07;21.20;38.10
52799;DHT22;38667;42.872;74.622;2022-09-01T02:08:34;21.30;37.90
52799;DHT22;38667;42.872;74.622;2022-09-01T02:11:01;21.40;38.10
52799;DHT22;38667;42.872;74.622;2022-09-01T02:13:28;21.40;38.50
52799;DHT22;38667;42.872;74.622;2022-09-01T02:15:57;21.40;38.90
52799;DHT22;38667;42.872;74.622;2022-09-01T02:18:25;21.40;38.70
52799;DHT22;38667;42.872;74.622;2022-09-01T02:20:53;21.50;40.80
52799;DHT22;38667;42.872;74.622;2022-09-01T02:23:20;21.50;40.60
52799;DHT22;38667;42.872;74.622;2022-09-01T02:25:47;21.60;39.20
52799;DHT22;38667;42.872;74.622;2022-09-01T02:28:16;21.70;38.60
52799;DHT22;38667;42.872;74.622;2022-09-01T02:30:42;21.70;41.40
52799;DHT22;38667;42.872;74.622;2022-09-01T02:33:12;21.80;40.70
52799;DHT22;38667;42.872;74.622;2022-09-01T02:35:38;21.80;44.60
52799;DHT22;38667;42.872;74.622;2022-09-01T02:38:05;21.80;42.80
52799;DHT22;38667;42.872;74.622;2022-09-01T02:40:32;21.90;41.30
52799;DHT22;38667;42.872;74.622;2022-09-01T02:42:59;22.00;41.70
52799;DHT22;38667;42.872;74.622;2022-09-01T02:45:26;22.00;43.00
52799;DHT22;38667;42.872;74.622;2022-09-01T02:47:52;22.00;42.70
52799;DHT22;38667;42.872;74.622;2022-09-01T02:50:20;22.10;41.70
52799;DHT22;38667;42.872;74.622;2022-09-01T02:52:47;22.20;40.50
52799;DHT22;38667;42.872;74.622;2022-09-01T02:55:14;22.30;39.50
52799;DHT22;38667;42.872;74.622;2022-09-01T02:57:40;22.40;39.20
52799;DHT22;38667;42.872;74.622;2022-09-01T03:00:08;22.50;39.00
52799;DHT22;38667;42.872;74.622;2022-09-01T03:02:35;22.50;38.10
52799;DHT22;38667;42.872;74.622;2022-09-01T03:05:01;22.60;37.60
52799;DHT22;38667;42.872;74.622;2022-09-01T03:07:29;22.70;37.50
52799;DHT22;38667;42.872;74.622;2022-09-01T03:09:55;22.80;37.80
52799;DHT22;38667;42.872;74.622;2022-09-01T03:12:21;22.80;38.10
52799;DHT22;38667;42.872;74.622;2022-09-01T03:14:48;22.80;38.60
52799;DHT22;38667;42.872;74.622;2022-09-01T03:17:14;22.80;39.00
52799;DHT22;38667;42.872;74.622;2022-09-01T03:19:41;22.90;40.10
52799;DHT22;38667;42.872;74.622;2022-09-01T03:22:07;22.90;39.70
52799;DHT22;38667;42.872;74.622;2022-09-01T03:24:35;22.90;40.20
52799;DHT22;38667;42.872;74.622;2022-09-01T03:27:02;23.00;40.40
52799;DHT22;38667;42.872;74.622;2022-09-01T03:29:28;23.00;40.40
52799;DHT22;38667;42.872;74.622;2022-09-01T03:31:54;23.10;40.70
52799;DHT22;38667;42.872;74.622;2022-09-01T03:34:20;23.20;40.70
52799;DHT22;38667;42.872;74.622;2022-09-01T03:36:47;23.20;40.80
52799;DHT22;38667;42.872;74.622;2022-09-01T03:39:13;23.20;41.00
52799;DHT22;38667;42.872;74.622;2022-09-01T03:41:41;23.30;41.10
52799;DHT22;38667;42.872;74.622;2022-09-01T03:44:07;23.30;40.70
52799;DHT22;38667;42.872;74.622;2022-09-01T03:46:33;23.40;39.50
52799;DHT22;38667;42.872;74.622;2022-09-01T03:49:00;23.40;38.90
52799;DHT22;38667;42.872;74.622;2022-09-01T03:51:26;23.50;38.40
52799;DHT22;38667;42.872;74.622;2022-09-01T03:53:53;23.50;38.70
52799;DHT22;38667;42.872;74.622;2022-09-01T03:56:20;23.60;39.30
52799;DHT22;38667;42.872;74.622;2022-09-01T03:58:48;23.60;39.80
52799;DHT22;38667;42.872;74.622;2022-09-01T04:01:14;23.70;39.50
52799;DHT22;38667;42.872;74.622;2022-09-01T04:03:41;23.70;39.60
52799;DHT22;38667;42.872;74.622;2022-09-01T04:06:08;23.70;40.00
52799;DHT22;38667;42.872;74.622;2022-09-01T04:08:35;23.80;39.90
52799;DHT22;38667;42.872;74.622;2022-09-01T04:11:03;23.90;40.00
52799;DHT22;38667;42.872;74.622;2022-09-01T04:13:33;23.90;39.50
52799;DHT22;38667;42.872;74.622;2022-09-01T04:16:01;23.90;39.40
52799;DHT22;38667;42.872;74.622;2022-09-01T04:18:28;23.90;39.00
52799;DHT22;38667;42.872;74.622;2022-09-01T04:20:56;23.90;37.50
52799;DHT22;38667;42.872;74.622;2022-09-01T04:23:24;23.90;37.20
52799;DHT22;38667;42.872;74.622;2022-09-01T04:25:52;24.00;37.30
52799;DHT22;38667;42.872;74.622;2022-09-01T04:28:19;24.00;37.40
52799;DHT22;38667;42.872;74.622;2022-09-01T04:30:46;24.10;37.60
52799;DHT22;38667;42.872;74.622;2022-09-01T04:33:14;24.10;37.90
52799;DHT22;38667;42.872;74.622;2022-09-01T04:35:40;24.20;33.50
52799;DHT22;38667;42.872;74.622;2022-09-01T04:38:06;24.30;35.20
52799;DHT22;38667;42.872;74.622;2022-09-01T04:40:35;24.30;35.10
52799;DHT22;38667;42.872;74.622;2022-09-01T04:43:05;24.30;34.60
52799;DHT22;38667;42.872;74.622;2022-09-01T04:45:33;24.40;34.70
52799;DHT22;38667;42.872;74.622;2022-09-01T04:48:00;24.40;35.00
52799;DHT22;38667;42.872;74.622;2022-09-01T04:50:28;24.40;34.50
52799;DHT22;38667;42.872;74.622;2022-09-01T04:52:54;24.50;33.80
52799;DHT22;38667;42.872;74.622;2022-09-01T04:55:20;24.60;33.90
52799;DHT22;38667;42.872;74.622;2022-09-01T04:57:48;24.60;33.70
52799;DHT22;38667;42.872;74.622;2022-09-01T05:00:15;24.60;32.00
52799;DHT22;38667;42.872;74.622;2022-09-01T05:02:42;24.70;33.00
52799;DHT22;38667;42.872;74.622;2022-09-01T05:05:09;24.80;34.20
52799;DHT22;38667;42.872;74.622;2022-09-01T05:07:37;24.80;34.30
52799;DHT22;38667;42.872;74.622;2022-09-01T05:10:03;24.90;34.50
52799;DHT22;38667;42.872;74.622;2022-09-01T05:12:30;25.00;32.70
52799;DHT22;38667;42.872;74.622;2022-09-01T05:14:56;25.20;30.10
52799;DHT22;38667;42.872;74.622;2022-09-01T05:17:22;25.30;31.20
52799;DHT22;38667;42.872;74.622;2022-09-01T05:19:49;25.40;32.80
52799;DHT22;38667;42.872;74.622;2022-09-01T05:22:16;25.40;33.50
52799;DHT22;38667;42.872;74.622;2022-09-01T05:24:44;25.40;34.10
52799;DHT22;38667;42.872;74.622;2022-09-01T05:27:10;25.40;33.60
52799;DHT22;38667;42.872;74.622;2022-09-01T05:29:37;25.50;33.00
52799;DHT22;38667;42.872;74.622;2022-09-01T05:32:03;25.50;32.50
52799;DHT22;38667;42.872;74.622;2022-09-01T05:34:30;25.60;32.70
52799;DHT22;38667;42.872;74.622;2022-09-01T05:36:57;25.60;31.20
52799;DHT22;38667;42.872;74.622;2022-09-01T05:39:24;25.70;31.50
52799;DHT22;38667;42.872;74.622;2022-09-01T05:41:52;25.90;30.20
52799;DHT22;38667;42.872;74.622;2022-09-01T05:44:19;26.00;31.00
52799;DHT22;38667;42.872;74.622;2022-09-01T05:46:46;26.20;28.20
52799;DHT22;38667;42.872;74.622;2022-09-01T05:49:13;26.40;30.20
52799;DHT22;38667;42.872;74.622;2022-09-01T05:51:41;26.50;29.90
52799;DHT22;38667;42.872;74.622;2022-09-01T05:54:08;26.90;29.80
52799;DHT22;38667;42.872;74.622;2022-09-01T05:56:35;27.10;32.10
52799;DHT22;38667;42.872;74.622;2022-09-01T05:59:03;26.90;31.90
52799;DHT22;38667;42.872;74.622;2022-09-01T06:01:29;26.50;31.40
52799;DHT22;38667;42.872;74.622;2022-09-01T06:03:56;26.30;31.90
52799;DHT22;38667;42.872;74.622;2022-09-01T06:06:24;26.30;32.60
52799;DHT22;38667;42.872;74.622;2022-09-01T06:08:51;26.20;33.60
52799;DHT22;38667;42.872;74.622;2022-09-01T06:11:18;26.10;33.20
52799;DHT22;38667;42.872;74.622;2022-09-01T06:13:45;26.10;33.00
52799;DHT22;38667;42.872;74.622;2022-09-01T06:16:13;26.10;33.00
52799;DHT22;38667;42.872;74.622;2022-09-01T06:18:40;26.10;32.90
52799;DHT22;38667;42.872;74.622;2022-09-01T06:21:06;26.20;30.70
52799;DHT22;38667;42.872;74.622;2022-09-01T06:23:32;26.40;29.70
52799;DHT22;38667;42.872;74.622;2022-09-01T06:25:59;26.50;30.40
52799;DHT22;38667;42.872;74.622;2022-09-01T06:28:25;26.40;30.40
52799;DHT22;38667;42.872;74.622;2022-09-01T06:30:51;26.30;31.70
52799;DHT22;38667;42.872;74.622;2022-09-01T06:33:19;26.20;32.20
52799;DHT22;38667;42.872;74.622;2022-09-01T06:35:45;26.30;30.10
52799;DHT22;38667;42.872;74.622;2022-09-01T06:38:12;26.50;30.80
52799;DHT22;38667;42.872;74.622;2022-09-01T06:40:39;26.60;30.90
52799;DHT22;38667;42.872;74.622;2022-09-01T06:43:05;26.70;31.60
52799;DHT22;38667;42.872;74.622;2022-09-01T06:45:32;26.70;32.10
52799;DHT22;38667;42.872;74.622;2022-09-01T06:47:59;26.80;29.90
52799;DHT22;38667;42.872;74.622;2022-09-01T06:50:27;26.80;31.10
52799;DHT22;38667;42.872;74.622;2022-09-01T06:52:53;26.70;31.60
52799;DHT22;38667;42.872;74.622;2022-09-01T06:55:20;26.70;31.20
52799;DHT22;38667;42.872;74.622;2022-09-01T06:57:46;26.70;30.90
52799;DHT22;38667;42.872;74.622;2022-09-01T07:00:13;26.70;29.50
52799;DHT22;38667;42.872;74.622;2022-09-01T07:02:40;26.60;30.90
52799;DHT22;38667;42.872;74.622;2022-09-01T07:05:06;26.60;31.50
52799;DHT22;38667;42.872;74.622;2022-09-01T07:07:36;26.80;30.10
52799;DHT22;38667;42.872;74.622;2022-09-01T07:10:04;27.10;31.20
52799;DHT22;38667;42.872;74.622;2022-09-01T07:12:30;27.60;30.20
52799;DHT22;38667;42.872;74.622;2022-09-01T07:14:57;27.80;30.50
52799;DHT22;38667;42.872;74.622;2022-09-01T07:17:23;27.60;30.10
52799;DHT22;38667;42.872;74.622;2022-09-01T07:19:49;27.20;31.30
52799;DHT22;38667;42.872;74.622;2022-09-01T07:22:16;27.00;31.00
52799;DHT22;38667;42.872;74.622;2022-09-01T07:24:44;26.70;31.50
52799;DHT22;38667;42.872;74.622;2022-09-01T07:27:10;26.60;30.80
52799;DHT22;38667;42.872;74.622;2022-09-01T07:29:37;26.90;30.90
52799;DHT22;38667;42.872;74.622;2022-09-01T07:32:03;27.30;30.00
52799;DHT22;38667;42.872;74.622;2022-09-01T07:34:30;27.90;29.40
52799;DHT22;38667;42.872;74.622;2022-09-01T07:36:56;28.20;30.00
52799;DHT22;38667;42.872;74.622;2022-09-01T07:39:23;28.00;29.80
52799;DHT22;38667;42.872;74.622;2022-09-01T07:41:50;27.90;29.80
52799;DHT22;38667;42.872;74.622;2022-09-01T07:44:17;27.60;29.80
52799;DHT22;38667;42.872;74.622;2022-09-01T07:46:43;27.30;30.70
52799;DHT22;38667;42.872;74.622;2022-09-01T07:49:09;27.10;30.80
52799;DHT22;38667;42.872;74.622;2022-09-01T07:51:36;26.80;30.80
52799;DHT22;38667;42.872;74.622;2022-09-01T07:54:02;26.60;31.30
52799;DHT22;38667;42.872;74.622;2022-09-01T07:56:29;26.60;31.20
52799;DHT22;38667;42.872;74.622;2022-09-01T07:58:57;26.60;30.50
52799;DHT22;38667;42.872;74.622;2022-09-01T08:01:26;26.70;30.10
52799;DHT22;38667;42.872;74.622;2022-09-01T08:03:54;26.70;31.00
52799;DHT22;38667;42.872;74.622;2022-09-01T08:06:21;26.60;30.30
52799;DHT22;38667;42.872;74.622;2022-09-01T08:08:49;26.60;30.90
52799;DHT22;38667;42.872;74.622;2022-09-01T08:11:16;26.50;31.10
52799;DHT22;38667;42.872;74.622;2022-09-01T08:13:43;26.50;30.40
52799;DHT22;38667;42.872;74.622;2022-09-01T08:16:11;26.50;31.10
52799;DHT22;38667;42.872;74.622;2022-09-01T08:18:37;26.50;31.00
52799;DHT22;38667;42.872;74.622;2022-09-01T08:21:06;26.50;31.60
52799;DHT22;38667;42.872;74.622;2022-09-01T08:23:32;26.40;30.70
52799;DHT22;38667;42.872;74.622;2022-09-01T08:25:58;26.60;30.90
52799;DHT22;38667;42.872;74.622;2022-09-01T08:28:29;26.90;29.50
52799;DHT22;38667;42.872;74.622;2022-09-01T08:30:55;27.60;29.40
52799;DHT22;38667;42.872;74.622;2022-09-01T08:33:23;28.80;28.40
52799;DHT22;38667;42.872;74.622;2022-09-01T08:35:50;30.20;27.40
52799;DHT22;38667;42.872;74.622;2022-09-01T08:38:16;29.90;27.10
52799;DHT22;38667;42.872;74.622;2022-09-01T08:40:50;29.10;28.70
52799;DHT22;38667;42.872;74.622;2022-09-01T08:43:23;28.60;28.80
52799;DHT22;38667;42.872;74.622;2022-09-01T08:45:53;28.00;29.10
52799;DHT22;38667;42.872;74.622;2022-09-01T08:48:23;28.20;28.50
52799;DHT22;38667;42.872;74.622;2022-09-01T08:50:54;28.20;27.10
52799;DHT22;38667;42.872;74.622;2022-09-01T08:53:27;28.40;27.00
52799;DHT22;38667;42.872;74.622;2022-09-01T08:55:56;28.60;28.30
52799;DHT22;38667;42.872;74.622;2022-09-01T08:58:24;28.40;28.80
52799;DHT22;38667;42.872;74.622;2022-09-01T09:00:55;28.40;29.00
52799;DHT22;38667;42.872;74.622;2022-09-01T09:03:30;28.70;28.00
52799;DHT22;38667;42.872;74.622;2022-09-01T09:06:09;28.70;27.80
52799;DHT22;38667;42.872;74.622;2022-09-01T09:08:51;29.10;26.70
52799;DHT22;38667;42.872;74.622;2022-09-01T09:11:52;29.30;26.10
52799;DHT22;38667;42.872;74.622;2022-09-01T09:14:32;29.50;26.50
52799;DHT22;38667;42.872;74.622;2022-09-01T09:17:01;29.10;27.80
52799;DHT22;38667;42.872;74.622;2022-09-01T09:19:32;29.00;27.70
52799;DHT22;38667;42.872;74.622;2022-09-01T09:22:01;28.60;27.80
52799;DHT22;38667;42.872;74.622;2022-09-01T09:24:31;28.20;28.70
52799;DHT22;38667;42.872;74.622;2022-09-01T09:26:59;27.90;28.80
52799;DHT22;38667;42.872;74.622;2022-09-01T09:29:26;27.60;29.70
52799;DHT22;38667;42.872;74.622;2022-09-01T09:32:03;27.50;28.80
52799;DHT22;38667;42.872;74.622;2022-09-01T09:34:34;27.70;28.90
52799;DHT22;38667;42.872;74.622;2022-09-01T09:37:16;28.90;27.20
52799;DHT22;38667;42.872;74.622;2022-09-01T09:39:42;30.00;26.60
52799;DHT22;38667;42.872;74.622;2022-09-01T09:42:12;30.60;25.80
52799;DHT22;38667;42.872;74.622;2022-09-01T09:44:42;31.10;25.20
52799;DHT22;38667;42.872;74.622;2022-09-01T09:47:09;30.80;25.90
52799;DHT22;38667;42.872;74.622;2022-09-01T09:49:37;31.10;25.40
52799;DHT22;38667;42.872;74.622;2022-09-01T09:52:15;31.00;25.80
52799;DHT22;38667;42.872;74.622;2022-09-01T09:54:58;31.50;23.40
52799;DHT22;38667;42.872;74.622;2022-09-01T09:57:25;32.20;22.70
52799;DHT22;38667;42.872;74.622;2022-09-01T09:59:56;31.10;24.70
52799;DHT22;38667;42.872;74.622;2022-09-01T10:02:26;29.50;26.30
52799;DHT22;38667;42.872;74.622;2022-09-01T10:04:55;28.40;26.90
52799;DHT22;38667;42.872;74.622;2022-09-01T10:07:28;27.70;27.50
52799;DHT22;38667;42.872;74.622;2022-09-01T10:09:56;27.60;29.00
52799;DHT22;38667;42.872;74.622;2022-09-01T10:12:24;27.80;26.20
52799;DHT22;38667;42.872;74.622;2022-09-01T10:14:53;28.00;28.10
52799;DHT22;38667;42.872;74.622;2022-09-01T10:17:23;27.90;28.70
52799;DHT22;38667;42.872;74.622;2022-09-01T10:19:55;27.70;28.10
52799;DHT22;38667;42.872;74.622;2022-09-01T10:22:22;28.20;27.60
52799;DHT22;38667;42.872;74.622;2022-09-01T10:24:49;28.50;27.30
52799;DHT22;38667;42.872;74.622;2022-09-01T10:27:18;28.40;29.10
52799;DHT22;38667;42.872;74.622;2022-09-01T10:29:47;27.80;29.70
52799;DHT22;38667;42.872;74.622;2022-09-01T10:32:19;27.50;30.60
52799;DHT22;38667;42.872;74.622;2022-09-01T10:34:47;27.40;30.40
52799;DHT22;38667;42.872;74.622;2022-09-01T10:37:16;27.40;30.50
52799;DHT22;38667;42.872;74.622;2022-09-01T10:40:17;27.60;27.50
52799;DHT22;38667;42.872;74.622;2022-09-01T10:42:46;27.70;25.70
52799;DHT22;38667;42.872;74.622;2022-09-01T10:45:19;27.90;29.20
52799;DHT22;38667;42.872;74.622;2022-09-01T10:47:54;27.70;30.40
52799;DHT22;38667;42.872;74.622;2022-09-01T10:50:26;27.10;31.90
52799;DHT22;38667;42.872;74.622;2022-09-01T10:53:03;26.80;30.90
52799;DHT22;38667;42.872;74.622;2022-09-01T10:55:34;26.70;30.80
52799;DHT22;38667;42.872;74.622;2022-09-01T10:58:21;26.70;30.90
52799;DHT22;38667;42.872;74.622;2022-09-01T11:00:52;27.00;30.20
52799;DHT22;38667;42.872;74.622;2022-09-01T11:03:47;26.80;31.60
52799;DHT22;38667;42.872;74.622;2022-09-01T11:06:33;26.70;30.80
52799;DHT22;38667;42.872;74.622;2022-09-01T11:09:22;26.70;31.00
52799;DHT22;38667;42.872;74.622;2022-09-01T11:12:46;26.60;31.30
52799;DHT22;38667;42.872;74.622;2022-09-01T11:15:35;26.50;31.20
52799;DHT22;38667;42.872;74.622;2022-09-01T11:18:08;26.50;30.60
52799;DHT22;38667;42.872;74.622;2022-09-01T11:20:36;26.40;30.30
52799;DHT22;38667;42.872;74.622;2022-09-01T11:23:06;26.50;28.90
52799;DHT22;38667;42.872;74.622;2022-09-01T11:25:42;26.80;30.20
52799;DHT22;38667;42.872;74.622;2022-09-01T11:28:37;26.90;29.50
52799;DHT22;38667;42.872;74.622;2022-09-01T11:31:18;26.80;30.50
52799;DHT22;38667;42.872;74.622;2022-09-01T11:33:52;26.60;31.10
52799;DHT22;38667;42.872;74.622;2022-09-01T11:36:27;26.40;30.30
52799;DHT22;38667;42.872;74.622;2022-09-01T11:39:02;26.80;29.10
52799;DHT22;38667;42.872;74.622;2022-09-01T11:41:32;27.30;28.80
52799;DHT22;38667;42.872;74.622;2022-09-01T11:44:02;27.00;30.60
52799;DHT22;38667;42.872;74.622;2022-09-01T11:46:36;26.60;31.20
52799;DHT22;38667;42.872;74.622;2022-09-01T11:49:06;26.40;32.00
52799;DHT22;38667;42.872;74.622;2022-09-01T11:51:45;26.40;32.10
52799;DHT22;38667;42.872;74.622;2022-09-01T11:54:12;26.20;32.60
52799;DHT22;38667;42.872;74.622;2022-09-01T11:56:39;26.10;32.50
52799;DHT22;38667;42.872;74.622;2022-09-01T11:59:07;26.00;32.10
52799;DHT22;38667;42.872;74.622;2022-09-01T12:01:35;26.10;32.00
52799;DHT22;38667;42.872;74.622;2022-09-01T12:04:23;26.10;31.40
52799;DHT22;38667;42.872;74.622;2022-09-01T12:06:55;26.20;30.00
52799;DHT22;38667;42.872;74.622;2022-09-01T12:09:31;26.30;31.00
52799;DHT22;38667;42.872;74.622;2022-09-01T12:11:58;26.20;31.90
52799;DHT22;38667;42.872;74.622;2022-09-01T12:14:26;26.10;31.80
52799;DHT22;38667;42.872;74.622;2022-09-01T12:16:58;26.00;31.90
52799;DHT22;38667;42.872;74.622;2022-09-01T12:19:27;25.90;31.90
52799;DHT22;38667;42.872;74.622;2022-09-01T12:21:58;25.90;32.40
52799;DHT22;38667;42.872;74.622;2022-09-01T12:24:25;25.80;32.60
52799;DHT22;38667;42.872;74.622;2022-09-01T12:26:53;25.80;32.60
52799;DHT22;38667;42.872;74.622;2022-09-01T12:29:20;25.70;32.80
52799;DHT22;38667;42.872;74.622;2022-09-01T12:31:49;25.80;33.30
52799;DHT22;38667;42.872;74.622;2022-09-01T12:34:35;25.80;32.30
52799;DHT22;38667;42.872;74.622;2022-09-01T12:37:04;25.80;31.50
52799;DHT22;38667;42.872;74.622;2022-09-01T12:39:33;26.00;30.90
52799;DHT22;38667;42.872;74.622;2022-09-01T12:42:03;26.10;31.40
52799;DHT22;38667;42.872;74.622;2022-09-01T12:44:33;26.00;31.40
52799;DHT22;38667;42.872;74.622;2022-09-01T12:47:04;26.00;31.20
52799;DHT22;38667;42.872;74.622;2022-09-01T12:49:37;26.10;31.10
52799;DHT22;38667;42.872;74.622;2022-09-01T12:52:13;26.10;31.00
52799;DHT22;38667;42.872;74.622;2022-09-01T12:54:42;26.10;30.50
52799;DHT22;38667;42.872;74.622;2022-09-01T12:57:25;26.30;29.80
52799;DHT22;38667;42.872;74.622;2022-09-01T13:00:06;26.40;29.70
52799;DHT22;38667;42.872;74.622;2022-09-01T13:02:36;26.50;29.90
52799;DHT22;38667;42.872;74.622;2022-09-01T13:05:25;26.60;29.40
52799;DHT22;38667;42.872;74.622;2022-09-01T13:07:53;26.70;29.30
52799;DHT22;38667;42.872;74.622;2022-09-01T13:10:19;26.80;29.60
52799;DHT22;38667;42.872;74.622;2022-09-01T13:12:46;26.70;29.90
52799;DHT22;38667;42.872;74.622;2022-09-01T13:15:12;26.50;30.60
52799;DHT22;38667;42.872;74.622;2022-09-01T13:17:40;26.20;30.90
52799;DHT22;38667;42.872;74.622;2022-09-01T13:20:07;26.20;30.70
52799;DHT22;38667;42.872;74.622;2022-09-01T13:22:34;26.20;30.40
52799;DHT22;38667;42.872;74.622;2022-09-01T13:25:00;26.30;31.20
52799;DHT22;38667;42.872;74.622;2022-09-01T13:27:27;26.30;30.90
52799;DHT22;38667;42.872;74.622;2022-09-01T13:29:53;26.30;31.00
52799;DHT22;38667;42.872;74.622;2022-09-01T13:32:20;26.30;31.20
52799;DHT22;38667;42.872;74.622;2022-09-01T13:34:50;26.30;31.50
52799;DHT22;38667;42.872;74.622;2022-09-01T13:37:16;26.20;31.60
52799;DHT22;38667;42.872;74.622;2022-09-01T13:39:43;26.20;31.80
52799;DHT22;38667;42.872;74.622;2022-09-01T13:42:09;26.20;32.00
52799;DHT22;38667;42.872;74.622;2022-09-01T13:44:35;26.20;32.00
52799;DHT22;38667;42.872;74.622;2022-09-01T13:47:02;26.20;32.10
52799;DHT22;38667;42.872;74.622;2022-09-01T13:49:28;26.10;32.40
52799;DHT22;38667;42.872;74.622;2022-09-01T13:51:56;26.00;33.30
52799;DHT22;38667;42.872;74.622;2022-09-01T13:54:22;25.90;33.70
52799;DHT22;38667;42.872;74.622;2022-09-01T13:56:48;25.80;34.50
52799;DHT22;38667;42.872;74.622;2022-09-01T13:59:15;25.70;33.70
52799;DHT22;38667;42.872;74.622;2022-09-01T14:01:41;25.60;33.70
52799;DHT22;38667;42.872;74.622;2022-09-01T14:04:07;25.50;33.50
52799;DHT22;38667;42.872;74.622;2022-09-01T14:06:39;25.60;33.50
52799;DHT22;38667;42.872;74.622;2022-09-01T14:09:07;25.60;33.40
52799;DHT22;38667;42.872;74.622;2022-09-01T14:11:33;25.60;33.60
52799;DHT22;38667;42.872;74.622;2022-09-01T14:13:59;25.50;34.20
52799;DHT22;38667;42.872;74.622;2022-09-01T14:16:26;25.60;34.20
52799;DHT22;38667;42.872;74.622;2022-09-01T14:18:52;25.60;34.70
52799;DHT22;38667;42.872;74.622;2022-09-01T14:21:18;25.60;34.00
52799;DHT22;38667;42.872;74.622;2022-09-01T14:23:45;25.60;33.70
52799;DHT22;38667;42.872;74.622;2022-09-01T14:26:14;25.70;32.90
52799;DHT22;38667;42.872;74.622;2022-09-01T14:28:42;25.80;32.80
52799;DHT22;38667;42.872;74.622;2022-09-01T14:31:09;25.90;32.50
52799;DHT22;38667;42.872;74.622;2022-09-01T14:33:36;26.00;32.40
52799;DHT22;38667;42.872;74.622;2022-09-01T14:36:03;26.00;32.30
52799;DHT22;38667;42.872;74.622;2022-09-01T14:38:30;26.10;31.80
52799;DHT22;38667;42.872;74.622;2022-09-01T14:40:57;26.10;31.70
52799;DHT22;38667;42.872;74.622;2022-09-01T14:43:25;26.00;31.20
52799;DHT22;38667;42.872;74.622;2022-09-01T14:46:02;26.10;30.90
52799;DHT22;38667;42.872;74.622;2022-09-01T14:48:28;26.00;30.50
52799;DHT22;38667;42.872;74.622;2022-09-01T14:50:54;26.00;30.30
52799;DHT22;38667;42.872;74.622;2022-09-01T14:53:21;26.00;30.40
52799;DHT22;38667;42.872;74.622;2022-09-01T14:55:50;26.10;30.20
52799;DHT22;38667;42.872;74.622;2022-09-01T14:58:16;26.10;30.20
52799;DHT22;38667;42.872;74.622;2022-09-01T15:00:44;26.10;30.20
52799;DHT22;38667;42.872;74.622;2022-09-01T15:03:11;26.00;30.20
52799;DHT22;38667;42.872;74.622;2022-09-01T15:05:37;26.00;30.30
52799;DHT22;38667;42.872;74.622;2022-09-01T15:08:04;25.90;30.00
52799;DHT22;38667;42.872;74.622;2022-09-01T15:10:30;25.90;30.00
52799;DHT22;38667;42.872;74.622;2022-09-01T15:12:58;25.90;30.00
52799;DHT22;38667;42.872;74.622;2022-09-01T15:15:26;25.80;30.10
52799;DHT22;38667;42.872;74.622;2022-09-01T15:17:56;25.80;29.90
52799;DHT22;38667;42.872;74.622;2022-09-01T15:20:23;25.80;30.10
52799;DHT22;38667;42.872;74.622;2022-09-01T15:22:52;25.80;30.00
52799;DHT22;38667;42.872;74.622;2022-09-01T15:25:18;25.70;30.00